createdAt,value
2023-01-05T00:04:51.983Z,18.793442
2023-01-05T00:09:53.732Z,18.76652
2023-01-05T00:14:55.575Z,18.538334
2023-01-05T00:19:57.310Z,18.491994
2023-01-05T00:24:58.942Z,18.309714
2023-01-05T00:30:00.625Z,18.133432
2023-01-05T00:35:02.397Z,18.350572
2023-01-05T00:40:03.921Z,18.015336
2023-01-05T00:45:05.651Z,18.165388
2023-01-05T00:50:07.317Z,18.062368
2023-01-05T00:55:09.007Z,17.922642
2023-01-05T01:00:10.871Z,18.53349
2023-01-05T01:05:12.578Z,18.25606
2023-01-05T01:10:14.066Z,18.23998
2023-01-05T01:15:15.687Z,18.426236
2023-01-05T01:20:17.399Z,17.915138
2023-01-05T01:25:18.904Z,17.983556
2023-01-05T01:30:20.491Z,17.683424
2023-01-05T01:35:22.528Z,17.279662
2023-01-05T01:40:23.971Z,17.50166
2023-01-05T01:45:25.477Z,16.997564
2023-01-05T01:50:27.059Z,17.495852
2023-01-05T01:55:28.586Z,17.253188
2023-01-05T02:00:30.305Z,17.096758
2023-01-05T02:05:32.270Z,16.493252
2023-01-05T02:10:33.967Z,16.944318
2023-01-05T02:15:35.723Z,17.298198
2023-01-05T02:20:37.612Z,17.251858
2023-01-05T02:25:39.430Z,16.994552
2023-01-05T02:30:41.221Z,16.610126
2023-01-05T02:35:43.224Z,17.056782
2023-01-05T02:40:45.048Z,17.421342
2023-01-05T02:45:47.176Z,16.965866
2023-01-05T02:50:48.959Z,16.449924
2023-01-05T02:55:50.737Z,17.32432
2023-01-05T03:00:52.536Z,17.02412
2023-01-05T03:05:55.207Z,17.285402
2023-01-05T03:10:57.011Z,17.096948
2023-01-05T03:15:58.884Z,16.881558
2023-01-05T03:21:00.765Z,17.326884
2023-01-05T03:26:02.530Z,17.276582
2023-01-05T03:31:04.401Z,16.800792
2023-01-05T03:36:06.429Z,16.51153
2023-01-05T03:41:08.239Z,16.588062
2023-01-05T03:46:10.190Z,16.866564
2023-01-05T03:51:12.049Z,16.614984
2023-01-05T03:56:13.605Z,16.923488
2023-01-05T04:01:15.216Z,17.156966
2023-01-05T04:06:17.149Z,17.596118
2023-01-05T04:11:18.872Z,17.63973
2023-01-05T04:16:20.750Z,17.522774
2023-01-05T04:21:22.239Z,17.997668
2023-01-05T04:26:23.829Z,18.07112
2023-01-05T04:31:25.716Z,18.201578
2023-01-05T04:36:27.741Z,18.844206
2023-01-05T04:41:29.608Z,19.302966
2023-01-05T04:46:31.444Z,19.58368
2023-01-05T04:51:33.285Z,18.650188
2023-01-05T04:56:35.142Z,19.813806
2023-01-05T05:01:37.084Z,19.585118
2023-01-05T05:06:39.149Z,20.165964
2023-01-05T05:11:41.020Z,20.785198
2023-01-05T05:16:43.013Z,20.499192
2023-01-05T05:21:44.817Z,20.788794
2023-01-05T05:26:46.593Z,20.495664
2023-01-05T05:31:48.467Z,20.719874
2023-01-05T05:36:50.550Z,21.189124
2023-01-05T05:41:52.333Z,22.417592
2023-01-05T05:46:54.092Z,22.001372
2023-01-05T05:51:55.789Z,21.148456
2023-01-05T05:56:57.360Z,20.752482
2023-01-05T06:01:59.248Z,21.530236
2023-01-05T06:07:01.083Z,21.1173
2023-01-05T06:12:02.600Z,19.471242
2023-01-05T06:17:04.441Z,20.16709
2023-01-05T06:22:05.980Z,21.00588
2023-01-05T06:27:07.536Z,22.2128
2023-01-05T06:32:09.255Z,22.171996
2023-01-05T06:37:10.977Z,22.87771
2023-01-05T06:42:12.510Z,22.254974
2023-01-05T06:47:14.084Z,21.953458
2023-01-05T06:52:16.909Z,22.32692
2023-01-05T06:57:18.734Z,20.998892
2023-01-05T07:02:20.568Z,21.476202
2023-01-05T07:07:22.595Z,21.55477
2023-01-05T07:12:24.129Z,23.802206
2023-01-05T07:17:25.765Z,24.3329
2023-01-05T07:22:27.562Z,24.088864
2023-01-05T07:27:29.113Z,23.892444
2023-01-05T07:32:30.687Z,22.671588
2023-01-05T07:37:32.353Z,23.900342
2023-01-05T07:42:34.334Z,23.033122
2023-01-05T07:47:35.940Z,22.264188
2023-01-05T07:52:37.497Z,21.006708
2023-01-05T07:57:39.149Z,21.837872
2023-01-05T08:02:40.865Z,21.301168
2023-01-05T08:07:42.499Z,20.693142
2023-01-05T08:12:44.296Z,21.070268
2023-01-05T08:17:46.070Z,22.912136
2023-01-05T08:22:47.817Z,22.724102
2023-01-05T08:27:49.602Z,24.068998
2023-01-05T08:32:51.535Z,25.965364
2023-01-05T08:37:53.637Z,25.712644
2023-01-05T08:42:55.116Z,24.372578
2023-01-05T08:47:56.991Z,24.157622
2023-01-05T08:52:58.617Z,24.27945
2023-01-05T08:58:00.221Z,25.021666
2023-01-05T09:03:02.197Z,25.103926
2023-01-05T09:08:04.605Z,24.832506
2023-01-05T09:13:06.137Z,25.285582
2023-01-05T09:18:07.928Z,25.84503
2023-01-05T09:23:09.625Z,26.563378
2023-01-05T09:28:11.254Z,24.830946
2023-01-05T09:33:12.859Z,22.53539
2023-01-05T09:38:15.069Z,21.401854
2023-01-05T09:43:16.575Z,19.811052
2023-01-05T09:48:18.254Z,20.653546
2023-01-05T09:53:19.808Z,20.940624
2023-01-05T09:58:26.264Z,21.138998
2023-01-05T10:04:02.324Z,21.325946
2023-01-05T10:09:04.987Z,22.431528
2023-01-05T10:14:06.758Z,22.635194
2023-01-05T10:19:08.457Z,24.306032
2023-01-05T10:24:10.135Z,21.37846
2023-01-05T10:29:11.823Z,21.633962
2023-01-05T10:39:31.401Z,25.688572
2023-01-05T10:44:33.167Z,23.61918
2023-01-05T10:49:34.926Z,23.682794
2023-01-05T10:54:36.724Z,22.348306
2023-01-05T10:59:38.532Z,23.4515
2023-01-05T11:04:40.072Z,23.548998
2023-01-05T11:20:02.407Z,23.891372
2023-01-05T11:25:04.203Z,24.570612
2023-01-05T11:40:26.816Z,24.650306
2023-01-05T11:45:28.321Z,25.418672
2023-01-05T11:50:30.165Z,24.79812
2023-01-05T11:55:31.640Z,24.75045
2023-01-05T12:00:33.291Z,24.389594
2023-01-05T12:05:34.759Z,24.079298
2023-01-05T12:10:36.309Z,22.943862
2023-01-05T12:15:37.914Z,22.109658
2023-01-05T12:20:39.478Z,21.876654
2023-01-05T12:25:41.044Z,21.66657
2023-01-05T12:36:14.785Z,21.572166
2023-01-05T12:41:16.508Z,21.42362
2023-01-05T12:46:18.074Z,22.03782
2023-01-05T12:51:19.691Z,20.411858
2023-01-05T12:56:21.289Z,20.781982
2023-01-05T13:01:22.904Z,20.550268
2023-01-05T13:06:24.543Z,19.834256
2023-01-05T13:11:26.144Z,19.676102
2023-01-05T13:16:27.603Z,20.029712
2023-01-05T13:21:29.476Z,20.108714
2023-01-05T13:26:37.491Z,20.738288
2023-01-05T13:31:40.145Z,19.676618
2023-01-05T13:36:41.843Z,20.317034
2023-01-05T13:41:43.555Z,20.399944
2023-01-05T13:46:45.331Z,21.112062
2023-01-05T13:51:47.035Z,21.135904
2023-01-05T13:56:48.713Z,20.706698
2023-01-05T14:01:50.323Z,22.184548
2023-01-05T14:06:52.124Z,22.194888
2023-01-05T14:11:53.891Z,21.859312
2023-01-05T14:16:55.695Z,21.08187
2023-01-05T14:21:57.504Z,21.424312
2023-01-05T14:26:59.292Z,22.01007
2023-01-05T14:32:01.042Z,21.016098
2023-01-05T14:37:02.854Z,20.259146
2023-01-05T14:42:04.743Z,21.453242
2023-01-05T14:47:06.579Z,21.71713
2023-01-05T14:52:08.328Z,22.36885
2023-01-05T14:57:10.155Z,22.379448
2023-01-05T15:02:11.934Z,22.849458
2023-01-05T15:07:13.714Z,21.462524
2023-01-05T15:12:15.486Z,21.117368
2023-01-05T15:17:16.994Z,20.797438
2023-01-05T15:22:36.359Z,19.17107
2023-01-05T15:27:38.903Z,19.797984
2023-01-05T15:32:40.681Z,19.93216
2023-01-05T15:37:42.242Z,18.8676
2023-01-05T15:42:43.725Z,18.509648
2023-01-05T15:47:45.493Z,18.22063
2023-01-05T15:52:47.274Z,18.830772
2023-01-05T15:57:49.290Z,19.221562
2023-01-05T16:02:51.068Z,18.424282
2023-01-05T16:07:52.887Z,18.252152
2023-01-05T16:12:54.676Z,17.907268
2023-01-05T16:17:56.431Z,18.284448
2023-01-05T16:23:01.264Z,17.727024
2023-01-05T16:28:08.194Z,18.63191
2023-01-05T16:33:09.792Z,18.100146
2023-01-05T16:38:11.268Z,17.964654
2023-01-05T16:43:13.165Z,16.9211
2023-01-05T16:48:14.982Z,17.52329
2023-01-05T16:53:16.692Z,17.38868
2023-01-05T16:58:18.318Z,16.992964
2023-01-05T17:03:19.825Z,17.36819
2023-01-05T17:08:21.321Z,17.56636
2023-01-05T17:13:22.936Z,17.299962
2023-01-05T17:18:24.440Z,17.26863
2023-01-05T17:23:25.959Z,17.615088
2023-01-05T17:28:27.739Z,17.758722
2023-01-05T17:33:29.379Z,18.286836
2023-01-05T17:38:30.900Z,17.966784
2023-01-05T17:43:33.198Z,18.034754
2023-01-05T17:48:34.924Z,17.802158
2023-01-05T17:53:36.798Z,17.75404
2023-01-05T17:58:38.590Z,18.596154
2023-01-05T18:03:40.500Z,18.432858
2023-01-05T18:13:44.235Z,18.184806
2023-01-05T18:18:46.099Z,17.993258
2023-01-05T18:23:47.892Z,18.153474
2023-01-05T18:28:49.742Z,18.312808
2023-01-05T18:33:51.520Z,18.278382
2023-01-05T18:38:53.283Z,18.838466
2023-01-05T18:43:55.091Z,18.15612
2023-01-05T18:48:56.765Z,18.451828
2023-01-05T18:53:58.559Z,18.826552
2023-01-05T18:59:00.380Z,18.674274
2023-01-05T19:04:02.224Z,19.067724
2023-01-05T19:09:04.056Z,18.415638
2023-01-05T19:14:06.090Z,18.492252
2023-01-05T19:19:07.799Z,18.188348
2023-01-05T19:24:09.588Z,18.19805
2023-01-05T19:29:11.519Z,18.589098
2023-01-05T19:34:13.249Z,17.965712
2023-01-05T19:39:14.967Z,18.356312
2023-01-05T19:44:16.916Z,18.081786
2023-01-05T19:49:18.531Z,17.847616
2023-01-05T19:54:20.371Z,18.386328
2023-01-05T19:59:22.223Z,18.022908
2023-01-05T20:04:23.746Z,18.066168
2023-01-05T20:09:26.186Z,17.945154
2023-01-05T20:14:29.886Z,18.10518
2023-01-05T20:19:33.463Z,17.946918
2023-01-05T20:24:35.335Z,17.898814
2023-01-05T20:29:38.986Z,18.082858
2023-01-05T20:34:40.788Z,18.570996
2023-01-05T20:39:43.636Z,17.956186
2023-01-05T20:44:45.312Z,18.123458
2023-01-05T20:49:46.841Z,16.50879
2023-01-05T20:54:48.628Z,17.04088
2023-01-05T20:59:50.391Z,16.709688
2023-01-05T21:04:52.234Z,16.439586
2023-01-05T21:09:54.041Z,16.210518
2023-01-05T21:14:56.188Z,15.93009
2023-01-05T21:19:58.606Z,15.479134
2023-01-05T21:25:00.293Z,15.629972
2023-01-05T21:30:02.139Z,15.097544
2023-01-05T21:35:04.612Z,15.130992
2023-01-05T21:40:06.423Z,15.211406
2023-01-05T21:45:08.537Z,14.945824
2023-01-05T21:50:10.032Z,15.011582
2023-01-05T21:55:11.795Z,14.665028
2023-01-05T22:00:13.661Z,14.750218
2023-01-05T22:05:15.303Z,14.865396
2023-01-05T22:10:16.929Z,14.529984
2023-01-05T22:15:18.716Z,14.498652
2023-01-05T22:20:20.320Z,14.818622
2023-01-05T22:25:21.885Z,14.351776
2023-01-05T22:30:23.658Z,14.560162
2023-01-05T22:35:25.216Z,14.235878
2023-01-05T22:40:26.807Z,14.040192
2023-01-05T22:45:28.853Z,13.998004
2023-01-05T22:50:30.498Z,14.707664
2023-01-05T22:55:32.125Z,14.55232
2023-01-05T23:00:33.674Z,14.442868
2023-01-05T23:05:35.211Z,14.222986
2023-01-05T23:10:36.782Z,14.71552
2023-01-05T23:15:38.560Z,14.469084
2023-01-05T23:20:40.088Z,13.980622
2023-01-05T23:25:41.708Z,14.037994
2023-01-05T23:30:43.533Z,13.66992
2023-01-05T23:35:45.107Z,14.116004
2023-01-05T23:40:46.569Z,14.06349
2023-01-05T23:45:48.231Z,14.091728
2023-01-05T23:50:49.741Z,14.403584
2023-01-05T23:55:51.331Z,15.044486
